createdAt,value
2022-12-26T00:00:54.686Z,7.20
2022-12-26T00:03:37.126Z,7.20
2022-12-26T00:06:06.186Z,7.20
2022-12-26T00:08:34.972Z,7.20
2022-12-26T00:11:04.750Z,7.20
2022-12-26T00:13:39.621Z,7.20
2022-12-26T00:16:11.136Z,7.20
2022-12-26T00:18:40.477Z,7.20
2022-12-26T00:21:10.722Z,7.20
2022-12-26T00:23:40.422Z,7.10
2022-12-26T00:26:12.021Z,7.10
2022-12-26T00:28:40.787Z,7.10
2022-12-26T00:31:11.809Z,7.10
2022-12-26T00:33:40.771Z,7.10
2022-12-26T00:36:11.324Z,7.10
2022-12-26T00:38:41.451Z,7.10
2022-12-26T00:41:13.989Z,7.10
2022-12-26T00:43:43.249Z,7.10
2022-12-26T00:46:12.211Z,7.10
2022-12-26T00:48:41.388Z,7.10
2022-12-26T00:51:09.885Z,7.10
2022-12-26T00:53:39.005Z,7.10
2022-12-26T00:56:08.265Z,7.10
2022-12-26T00:58:39.262Z,7.10
2022-12-26T01:01:09.975Z,7.10
2022-12-26T01:03:39.922Z,7.10
2022-12-26T01:06:08.546Z,7.10
2022-12-26T01:08:37.385Z,7.10
2022-12-26T01:11:08.096Z,7.10
2022-12-26T01:13:38.642Z,7.10
2022-12-26T01:16:08.261Z,7.10
2022-12-26T01:18:37.613Z,7.10
2022-12-26T01:21:08.243Z,7.10
2022-12-26T01:23:37.169Z,7.10
2022-12-26T01:26:14.899Z,7.10
2022-12-26T01:28:49.556Z,7.10
2022-12-26T01:31:18.894Z,7.20
2022-12-26T01:33:47.932Z,7.20
2022-12-26T01:36:17.330Z,7.20
2022-12-26T01:38:46.102Z,7.20
2022-12-26T01:41:21.312Z,7.20
2022-12-26T01:43:57.357Z,7.20
2022-12-26T01:46:29.933Z,7.20
2022-12-26T01:49:01.108Z,7.30
2022-12-26T01:51:34.979Z,7.20
2022-12-26T01:54:39.168Z,7.20
2022-12-26T01:56:58.776Z,7.20
2022-12-26T01:59:31.052Z,7.20
2022-12-26T02:02:00.846Z,7.20
2022-12-26T02:04:56.878Z,7.20
2022-12-26T02:07:25.798Z,7.20
2022-12-26T02:09:54.881Z,7.20
2022-12-26T02:12:36.484Z,7.20
2022-12-26T02:15:11.354Z,7.20
2022-12-26T02:17:40.459Z,7.20
2022-12-26T02:20:18.258Z,7.20
2022-12-26T02:23:25.198Z,7.20
2022-12-26T02:26:26.548Z,7.20
2022-12-26T02:29:31.241Z,7.20
2022-12-26T02:32:10.105Z,7.20
2022-12-26T02:34:46.786Z,7.20
2022-12-26T02:37:25.889Z,7.20
2022-12-26T02:40:14.184Z,7.20
2022-12-26T02:42:57.134Z,7.20
2022-12-26T02:45:51.665Z,7.20
2022-12-26T02:48:31.949Z,7.20
2022-12-26T02:51:25.911Z,7.10
2022-12-26T02:54:25.106Z,7.20
2022-12-26T02:57:16.222Z,7.20
2022-12-26T03:00:11.390Z,7.20
2022-12-26T03:03:03.324Z,7.20
2022-12-26T03:06:01.001Z,7.20
2022-12-26T03:08:50.457Z,7.20
2022-12-26T03:11:36.825Z,7.20
2022-12-26T03:14:13.525Z,7.20
2022-12-26T03:16:59.866Z,7.20
2022-12-26T03:19:30.701Z,7.20
2022-12-26T03:22:23.429Z,7.20
2022-12-26T03:25:07.924Z,7.20
2022-12-26T03:27:36.584Z,7.20
2022-12-26T03:30:28.690Z,7.20
2022-12-26T03:32:58.159Z,7.20
2022-12-26T03:35:30.362Z,7.20
2022-12-26T03:38:06.160Z,7.30
2022-12-26T03:41:02.306Z,7.30
2022-12-26T03:44:06.196Z,7.30
2022-12-26T03:47:02.982Z,7.30
2022-12-26T03:49:55.281Z,7.30
2022-12-26T03:52:48.469Z,7.30
2022-12-26T03:55:50.135Z,7.30
2022-12-26T03:58:41.824Z,7.30
2022-12-26T04:01:34.340Z,7.30
2022-12-26T04:04:22.606Z,7.30
2022-12-26T04:07:14.660Z,7.30
2022-12-26T04:10:03.843Z,7.30
2022-12-26T04:12:52.361Z,7.50
2022-12-26T04:15:43.748Z,7.30
2022-12-26T04:18:36.896Z,7.30
2022-12-26T04:21:31.105Z,7.30
2022-12-26T04:24:21.682Z,7.30
2022-12-26T04:27:11.834Z,7.70
2022-12-26T04:29:59.387Z,7.50
2022-12-26T04:32:53.014Z,7.30
2022-12-26T04:35:43.251Z,7.40
2022-12-26T04:38:35.238Z,7.30
2022-12-26T04:41:22.611Z,7.40
2022-12-26T04:44:05.779Z,7.40
2022-12-26T04:46:37.941Z,7.40
2022-12-26T04:49:25.524Z,7.40
2022-12-26T04:51:56.134Z,7.60
2022-12-26T04:54:25.227Z,7.40
2022-12-26T04:56:54.205Z,7.40
2022-12-26T04:59:23.057Z,7.40
2022-12-26T05:02:10.551Z,7.40
2022-12-26T05:04:56.398Z,7.40
2022-12-26T05:07:46.048Z,7.40
2022-12-26T05:10:18.613Z,7.40
2022-12-26T05:12:47.480Z,7.40
2022-12-26T05:15:16.514Z,7.40
2022-12-26T05:18:04.183Z,7.50
2022-12-26T05:20:50.613Z,7.50
2022-12-26T05:23:39.811Z,7.60
2022-12-26T05:26:30.193Z,7.50
2022-12-26T05:29:01.176Z,7.60
2022-12-26T05:31:34.958Z,7.50
2022-12-26T05:34:06.022Z,7.50
2022-12-26T05:36:39.125Z,7.60
2022-12-26T05:39:08.995Z,7.60
2022-12-26T05:41:38.173Z,7.60
2022-12-26T05:44:07.104Z,7.60
2022-12-26T05:46:35.912Z,7.60
2022-12-26T05:49:07.218Z,7.60
2022-12-26T05:51:36.003Z,7.60
2022-12-26T05:54:04.825Z,7.60
2022-12-26T05:56:33.125Z,7.60
2022-12-26T05:59:02.794Z,7.60
2022-12-26T06:01:31.927Z,7.60
2022-12-26T06:04:01.859Z,7.60
2022-12-26T06:06:31.780Z,7.60
2022-12-26T06:09:00.496Z,7.60
2022-12-26T06:11:28.858Z,7.60
2022-12-26T06:13:57.725Z,7.60
2022-12-26T06:16:26.188Z,7.60
2022-12-26T06:18:56.205Z,7.70
2022-12-26T06:21:25.469Z,7.70
2022-12-26T06:23:55.516Z,7.70
2022-12-26T06:26:24.040Z,7.70
2022-12-26T06:28:53.210Z,7.70
2022-12-26T06:31:23.711Z,7.70
2022-12-26T06:33:55.542Z,7.70
2022-12-26T06:36:25.954Z,7.80
2022-12-26T06:38:56.984Z,7.80
2022-12-26T06:41:26.260Z,7.80
2022-12-26T06:43:55.973Z,7.80
2022-12-26T06:46:26.443Z,7.80
2022-12-26T06:48:55.601Z,7.80
2022-12-26T06:51:26.997Z,7.80
2022-12-26T06:53:57.208Z,7.80
2022-12-26T06:56:27.638Z,7.80
2022-12-26T06:58:57.109Z,7.80
2022-12-26T07:01:26.929Z,7.80
2022-12-26T07:03:56.741Z,7.90
2022-12-26T07:06:27.684Z,7.90
2022-12-26T07:08:59.588Z,7.90
2022-12-26T07:11:31.500Z,7.90
2022-12-26T07:14:00.814Z,7.90
2022-12-26T07:16:29.793Z,7.90
2022-12-26T07:18:59.806Z,7.90
2022-12-26T07:21:31.276Z,8.00
2022-12-26T07:24:03.689Z,7.90
2022-12-26T07:26:32.163Z,7.90
2022-12-26T07:29:01.168Z,7.90
2022-12-26T07:31:29.707Z,7.90
2022-12-26T07:33:58.927Z,7.90
2022-12-26T07:36:27.779Z,8.00
2022-12-26T07:38:56.687Z,8.00
2022-12-26T07:41:44.273Z,8.00
2022-12-26T07:44:13.399Z,8.00
2022-12-26T07:46:42.046Z,8.00
2022-12-26T07:49:13.272Z,8.00
2022-12-26T07:51:42.925Z,8.10
2022-12-26T07:54:12.156Z,8.10
2022-12-26T07:56:42.528Z,8.10
2022-12-26T07:59:15.508Z,8.10
2022-12-26T08:01:44.506Z,8.10
2022-12-26T08:04:13.947Z,8.20
2022-12-26T08:06:42.637Z,8.20
2022-12-26T08:09:16.463Z,8.20
2022-12-26T08:11:46.301Z,8.20
2022-12-26T08:14:16.846Z,8.20
2022-12-26T08:16:51.325Z,8.30
2022-12-26T08:19:22.053Z,8.30
2022-12-26T08:21:50.582Z,8.30
2022-12-26T08:24:21.964Z,8.40
2022-12-26T08:26:51.830Z,8.40
2022-12-26T08:29:20.429Z,8.50
2022-12-26T08:31:48.992Z,8.50
2022-12-26T08:34:17.675Z,8.50
2022-12-26T08:36:46.770Z,8.60
2022-12-26T08:39:15.769Z,8.60
2022-12-26T08:41:44.343Z,8.70
2022-12-26T08:44:27.159Z,8.70
2022-12-26T08:46:56.618Z,8.80
2022-12-26T08:49:25.789Z,8.90
2022-12-26T08:51:54.278Z,8.90
2022-12-26T08:54:22.983Z,9.00
2022-12-26T08:56:51.789Z,9.00
2022-12-26T08:59:21.997Z,9.10
2022-12-26T09:01:50.975Z,9.20
2022-12-26T09:04:19.931Z,9.20
2022-12-26T09:06:48.356Z,9.20
2022-12-26T09:09:18.033Z,9.30
2022-12-26T09:11:46.373Z,9.40
2022-12-26T09:14:15.236Z,9.50
2022-12-26T09:16:50.463Z,9.50
2022-12-26T09:19:21.242Z,9.60
2022-12-26T09:22:12.016Z,9.60
2022-12-26T09:24:40.701Z,9.70
2022-12-26T09:27:10.042Z,9.70
2022-12-26T09:29:39.381Z,9.80
2022-12-26T09:32:09.311Z,9.80
2022-12-26T09:34:37.993Z,9.80
2022-12-26T09:37:06.239Z,9.90
2022-12-26T09:39:35.346Z,9.90
2022-12-26T09:42:14.402Z,9.90
2022-12-26T09:44:51.847Z,9.90
2022-12-26T09:47:32.774Z,9.90
2022-12-26T09:50:06.940Z,10.00
2022-12-26T09:52:42.898Z,10.00
2022-12-26T09:55:33.658Z,10.10
2022-12-26T09:58:09.807Z,10.10
2022-12-26T10:00:45.633Z,10.10
2022-12-26T10:03:15.377Z,10.10
2022-12-26T10:05:55.512Z,10.10
2022-12-26T10:08:33.502Z,10.10
2022-12-26T10:11:04.530Z,10.10
2022-12-26T10:13:40.184Z,10.20
2022-12-26T10:16:17.122Z,10.20
2022-12-26T10:18:58.011Z,10.30
2022-12-26T10:21:42.103Z,10.40
2022-12-26T10:24:16.897Z,10.40
2022-12-26T10:26:49.982Z,10.40
2022-12-26T10:29:24.576Z,10.50
2022-12-26T10:31:57.967Z,10.50
2022-12-26T10:34:32.141Z,10.50
2022-12-26T10:37:02.673Z,10.60
2022-12-26T10:39:36.177Z,10.70
2022-12-26T10:42:12.973Z,10.70
2022-12-26T10:44:41.816Z,10.70
2022-12-26T10:47:23.153Z,10.80
2022-12-26T10:49:53.771Z,10.90
2022-12-26T10:52:31.678Z,11.00
2022-12-26T10:55:31.235Z,11.00
2022-12-26T10:57:53.344Z,11.10
2022-12-26T11:00:23.958Z,11.20
2022-12-26T11:03:07.473Z,11.20
2022-12-26T11:08:40.870Z,11.20
2022-12-26T11:11:15.654Z,11.20
2022-12-26T11:13:49.769Z,11.20
2022-12-26T11:16:26.743Z,11.10
2022-12-26T11:18:56.135Z,11.20
2022-12-26T11:21:28.372Z,11.20
2022-12-26T11:24:17.327Z,11.20
2022-12-26T11:26:45.800Z,11.20
2022-12-26T11:29:16.485Z,11.20
2022-12-26T11:31:52.335Z,11.20
2022-12-26T11:34:35.191Z,11.20
2022-12-26T11:37:07.470Z,11.20
2022-12-26T11:39:38.445Z,11.20
2022-12-26T11:42:12.130Z,11.10
2022-12-26T11:44:45.744Z,11.10
2022-12-26T11:47:17.384Z,11.10
2022-12-26T11:49:55.962Z,11.10
2022-12-26T11:52:40.761Z,11.10
2022-12-26T11:55:29.420Z,11.00
2022-12-26T11:58:01.826Z,11.00
2022-12-26T12:00:31.197Z,10.90
2022-12-26T12:03:00.351Z,10.90
2022-12-26T12:05:46.117Z,10.90
2022-12-26T12:08:38.430Z,10.80
2022-12-26T12:11:23.264Z,10.70
2022-12-26T12:14:16.220Z,10.70
2022-12-26T12:16:56.623Z,10.60
2022-12-26T12:19:39.002Z,10.60
2022-12-26T12:22:31.982Z,10.60
2022-12-26T12:25:23.278Z,10.50
2022-12-26T12:28:01.080Z,10.50
2022-12-26T12:30:37.497Z,10.50
2022-12-26T12:33:24.687Z,10.50
2022-12-26T12:36:04.738Z,10.50
2022-12-26T12:38:37.920Z,10.50
2022-12-26T12:41:29.375Z,10.40
2022-12-26T12:44:06.059Z,10.40
2022-12-26T12:46:44.351Z,10.40
2022-12-26T12:49:28.374Z,10.40
2022-12-26T12:52:07.195Z,10.50
2022-12-26T12:55:21.170Z,10.50
2022-12-26T12:57:57.724Z,10.50
2022-12-26T13:00:29.569Z,10.50
2022-12-26T13:03:04.160Z,10.50
2022-12-26T13:05:45.859Z,10.50
2022-12-26T13:08:20.027Z,10.60
2022-12-26T13:10:53.020Z,10.60
2022-12-26T13:13:28.454Z,10.60
2022-12-26T13:16:04.287Z,10.60
2022-12-26T13:18:37.057Z,10.50
2022-12-26T13:21:08.854Z,10.60
2022-12-26T13:24:11.249Z,10.60
2022-12-26T13:26:43.815Z,10.60
2022-12-26T13:29:17.868Z,10.60
2022-12-26T13:31:47.406Z,10.50
2022-12-26T13:34:18.356Z,10.50
2022-12-26T13:36:49.105Z,10.50
2022-12-26T13:39:42.288Z,10.50
2022-12-26T13:42:52.928Z,10.50
2022-12-26T13:45:48.670Z,10.50
2022-12-26T13:48:57.075Z,10.40
2022-12-26T13:51:54.181Z,10.40
2022-12-26T13:54:24.703Z,10.40
2022-12-26T13:57:36.663Z,10.40
2022-12-26T14:00:18.569Z,10.40
2022-12-26T14:03:35.104Z,10.30
2022-12-26T14:06:37.926Z,10.30
2022-12-26T14:09:24.024Z,10.20
2022-12-26T14:12:40.230Z,10.20
2022-12-26T14:15:27.806Z,10.20
2022-12-26T14:18:21.468Z,10.10
2022-12-26T14:20:56.204Z,10.10
2022-12-26T14:23:37.954Z,10.10
2022-12-26T14:26:21.074Z,10.00
2022-12-26T14:28:59.921Z,10.00
2022-12-26T14:31:38.205Z,10.00
2022-12-26T14:34:22.426Z,10.00
2022-12-26T14:36:56.997Z,10.00
2022-12-26T14:39:37.713Z,10.00
2022-12-26T14:42:39.596Z,10.00
2022-12-26T14:45:36.736Z,9.90
2022-12-26T14:48:31.131Z,9.90
2022-12-26T14:51:33.189Z,9.90
2022-12-26T14:54:38.025Z,9.90
2022-12-26T14:57:44.441Z,9.90
2022-12-26T15:00:32.648Z,9.90
2022-12-26T15:03:39.735Z,9.80
2022-12-26T15:06:53.725Z,9.80
2022-12-26T15:09:54.420Z,9.80
2022-12-26T15:13:07.015Z,9.80
2022-12-26T15:15:46.799Z,9.70
2022-12-26T15:18:53.641Z,9.70
2022-12-26T15:21:52.122Z,9.70
2022-12-26T15:27:59.521Z,9.60
2022-12-26T15:30:48.517Z,9.60
2022-12-26T15:33:24.919Z,9.60
2022-12-26T15:36:03.935Z,9.50
2022-12-26T15:38:41.944Z,9.50
2022-12-26T15:41:17.144Z,9.50
2022-12-26T15:44:04.465Z,9.40
2022-12-26T15:46:42.399Z,9.40
2022-12-26T15:49:39.984Z,9.40
2022-12-26T15:52:16.911Z,9.40
2022-12-26T15:55:14.577Z,9.30
2022-12-26T15:57:52.094Z,9.40
2022-12-26T16:00:25.783Z,9.40
2022-12-26T16:03:11.699Z,9.40
2022-12-26T16:05:56.206Z,9.40
2022-12-26T16:08:46.922Z,9.40
2022-12-26T16:11:20.843Z,9.40
2022-12-26T16:13:52.141Z,9.40
2022-12-26T16:16:33.427Z,9.40
2022-12-26T16:19:19.485Z,9.40
2022-12-26T16:22:29.467Z,9.40
2022-12-26T16:24:57.902Z,9.40
2022-12-26T16:27:26.871Z,9.40
2022-12-26T16:29:58.124Z,9.40
2022-12-26T16:32:31.033Z,9.40
2022-12-26T16:35:01.113Z,9.50
2022-12-26T16:37:31.638Z,9.50
2022-12-26T16:40:09.114Z,9.50
2022-12-26T16:42:37.711Z,9.50
2022-12-26T16:45:19.026Z,9.50
2022-12-26T16:47:48.629Z,9.50
2022-12-26T16:50:20.807Z,9.40
2022-12-26T16:52:50.261Z,9.50
2022-12-26T16:55:34.212Z,9.50
2022-12-26T16:58:05.767Z,9.50
2022-12-26T17:00:35.020Z,9.60
2022-12-26T17:03:10.771Z,9.60
2022-12-26T17:05:43.999Z,9.70
2022-12-26T17:08:16.009Z,9.70
2022-12-26T17:10:49.932Z,9.70
2022-12-26T17:13:22.007Z,9.80
2022-12-26T17:15:54.900Z,9.80
2022-12-26T17:18:49.015Z,9.80
2022-12-26T17:21:27.279Z,9.80
2022-12-26T17:24:16.196Z,9.80
2022-12-26T17:26:45.310Z,9.80
2022-12-26T17:29:36.760Z,9.80
2022-12-26T17:32:09.550Z,9.80
2022-12-26T17:34:40.758Z,9.80
2022-12-26T17:37:20.124Z,9.80
2022-12-26T17:40:03.000Z,9.80
2022-12-26T17:42:38.827Z,9.80
2022-12-26T17:45:08.172Z,9.80
2022-12-26T17:47:36.489Z,9.80
2022-12-26T17:50:05.899Z,9.80
2022-12-26T17:52:36.065Z,9.80
2022-12-26T17:55:06.333Z,9.70
2022-12-26T17:57:34.774Z,9.70
2022-12-26T18:00:04.390Z,9.70
2022-12-26T18:02:32.909Z,9.70
2022-12-26T18:05:01.767Z,9.70
2022-12-26T18:07:31.752Z,9.70
2022-12-26T18:10:02.436Z,9.70
2022-12-26T18:12:30.924Z,9.70
2022-12-26T18:15:02.485Z,9.70
2022-12-26T18:17:34.373Z,9.60
2022-12-26T18:20:03.391Z,9.60
2022-12-26T18:22:31.865Z,9.60
2022-12-26T18:25:01.943Z,9.60
2022-12-26T18:27:32.230Z,9.50
2022-12-26T18:30:01.886Z,9.50
2022-12-26T18:32:32.622Z,9.40
2022-12-26T18:35:02.167Z,9.50
2022-12-26T18:37:31.629Z,9.50
2022-12-26T18:40:02.439Z,9.40
2022-12-26T18:42:30.796Z,9.40
2022-12-26T18:44:59.553Z,9.40
2022-12-26T18:47:27.890Z,9.40
2022-12-26T18:49:56.474Z,9.40
2022-12-26T18:52:24.745Z,9.30
2022-12-26T18:54:53.325Z,9.30
2022-12-26T18:57:23.048Z,9.30
2022-12-26T18:59:51.680Z,9.30
2022-12-26T19:02:20.654Z,9.30
2022-12-26T19:04:49.994Z,9.30
2022-12-26T19:07:22.196Z,9.30
2022-12-26T19:09:55.043Z,9.30
2022-12-26T19:12:25.458Z,9.20
2022-12-26T19:14:56.842Z,9.30
2022-12-26T19:17:25.198Z,9.20
2022-12-26T19:19:53.815Z,9.20
2022-12-26T19:22:22.309Z,9.20
2022-12-26T19:24:51.082Z,9.20
2022-12-26T19:27:19.581Z,9.20
2022-12-26T19:29:50.034Z,9.30
2022-12-26T19:32:18.454Z,9.30
2022-12-26T19:34:47.170Z,9.20
2022-12-26T19:37:18.057Z,9.30
2022-12-26T19:39:46.817Z,9.40
2022-12-26T19:42:15.263Z,9.30
2022-12-26T19:44:44.445Z,9.30
2022-12-26T19:47:14.238Z,9.30
2022-12-26T19:49:43.266Z,9.30
2022-12-26T19:52:12.389Z,9.30
2022-12-26T19:54:41.346Z,9.30
2022-12-26T19:57:09.923Z,9.30
2022-12-26T19:59:38.713Z,9.30
2022-12-26T20:02:07.344Z,9.30
2022-12-26T20:04:37.842Z,9.20
2022-12-26T20:07:06.810Z,9.30
2022-12-26T20:09:35.563Z,9.20
2022-12-26T20:12:04.314Z,9.20
2022-12-26T20:14:33.694Z,9.20
2022-12-26T20:17:05.570Z,9.20
2022-12-26T20:19:35.803Z,9.20
2022-12-26T20:22:06.582Z,9.20
2022-12-26T20:24:36.269Z,9.20
2022-12-26T20:27:05.421Z,9.30
2022-12-26T20:29:34.393Z,9.20
2022-12-26T20:32:02.845Z,9.20
2022-12-26T20:34:31.590Z,9.20
2022-12-26T20:36:59.972Z,9.20
2022-12-26T20:39:31.994Z,9.20
2022-12-26T20:42:01.355Z,9.20
2022-12-26T20:44:30.108Z,9.20
2022-12-26T20:46:58.453Z,9.20
2022-12-26T20:49:27.032Z,9.20
2022-12-26T20:51:55.658Z,9.20
2022-12-26T20:54:24.911Z,9.20
2022-12-26T20:56:54.647Z,9.20
2022-12-26T20:59:23.636Z,9.20
2022-12-26T21:01:52.107Z,9.20
2022-12-26T21:04:22.887Z,9.20
2022-12-26T21:06:52.022Z,9.20
2022-12-26T21:09:20.907Z,9.20
2022-12-26T21:11:49.268Z,9.20
2022-12-26T21:14:21.706Z,9.20
2022-12-26T21:16:52.422Z,9.20
2022-12-26T21:19:22.821Z,9.10
2022-12-26T21:21:53.030Z,9.10
2022-12-26T21:24:23.618Z,9.00
2022-12-26T21:26:51.940Z,9.00
2022-12-26T21:29:24.890Z,8.90
2022-12-26T21:31:54.020Z,8.90
2022-12-26T21:34:24.911Z,8.90
2022-12-26T21:37:10.907Z,8.90
2022-12-26T21:39:40.639Z,8.90
2022-12-26T21:42:10.185Z,8.90
2022-12-26T21:44:40.307Z,8.90
2022-12-26T21:47:09.272Z,8.80
2022-12-26T21:49:38.304Z,8.80
2022-12-26T21:52:07.892Z,8.70
2022-12-26T21:54:54.288Z,8.70
2022-12-26T21:57:23.160Z,8.70
2022-12-26T21:59:59.722Z,8.70
2022-12-26T22:02:48.254Z,8.70
2022-12-26T22:05:18.455Z,8.70
2022-12-26T22:07:47.707Z,8.70
2022-12-26T22:10:30.254Z,8.70
2022-12-26T22:12:58.773Z,8.70
2022-12-26T22:15:46.057Z,8.70
2022-12-26T22:18:14.556Z,8.70
2022-12-26T22:20:45.270Z,8.60
2022-12-26T22:23:14.293Z,8.60
2022-12-26T22:25:43.010Z,8.60
2022-12-26T22:28:11.596Z,8.50
2022-12-26T22:30:47.859Z,8.50
2022-12-26T22:33:16.576Z,8.50
2022-12-26T22:35:45.494Z,8.50
2022-12-26T22:38:14.196Z,8.50
2022-12-26T22:40:43.496Z,8.50
2022-12-26T22:43:11.765Z,8.50
2022-12-26T22:45:44.856Z,8.50
2022-12-26T22:48:13.385Z,8.50
2022-12-26T22:50:44.383Z,8.40
2022-12-26T22:53:13.446Z,8.40
2022-12-26T22:55:48.657Z,8.40
2022-12-26T22:58:18.493Z,8.40
2022-12-26T23:00:49.409Z,8.30
2022-12-26T23:03:18.117Z,8.30
2022-12-26T23:05:48.124Z,8.30
2022-12-26T23:08:19.423Z,8.20
2022-12-26T23:10:50.089Z,8.20
2022-12-26T23:13:19.155Z,8.20
2022-12-26T23:15:56.902Z,8.10
2022-12-26T23:18:53.055Z,8.10
2022-12-26T23:21:43.019Z,8.10
2022-12-26T23:24:16.495Z,8.00
2022-12-26T23:26:48.493Z,8.00
2022-12-26T23:29:36.095Z,7.90
2022-12-26T23:32:06.674Z,7.90
2022-12-26T23:34:35.649Z,7.80
2022-12-26T23:37:04.873Z,7.70
2022-12-26T23:39:33.503Z,7.70
2022-12-26T23:42:02.068Z,7.60
2022-12-26T23:44:30.542Z,7.60
2022-12-26T23:46:59.224Z,7.50
2022-12-26T23:49:28.908Z,7.50
2022-12-26T23:51:57.491Z,7.40
2022-12-26T23:54:26.067Z,7.40
2022-12-26T23:56:55.029Z,7.30
2022-12-26T23:59:23.508Z,7.20
